Time;durP1;ratioP1;P1;durP2;ratioP2;P2;SDS_P1;SDS_P2;PMS_P1;PMS_P2;Temp;Humidity;BMP_temperature;BMP_pressure;BME280_temperature;BME280_humidity;BME280_pressure;Samples;Min_cycle;Max_cycle;Signal;HPM_P1;HPM_P2
2023/04/17 00:01:09;;;;;;;22.17;19.60;;;8.50;99.90;;;9.18;100.00;98264.56;5226848;28;20721;-66
2023/04/17 00:03:43;;;;;;;21.50;18.15;;;8.50;99.90;;;9.18;100.00;98269.66;5227428;28;20785;-66
2023/04/17 00:06:17;;;;;;;19.92;17.45;;;8.50;99.90;;;9.15;100.00;98264.34;5237902;28;20510;-67
2023/04/17 00:08:50;;;;;;;20.35;18.17;;;8.50;99.90;;;9.15;100.00;98259.25;5239690;28;20227;-67
2023/04/17 00:11:23;;;;;;;20.63;17.75;;;8.50;99.90;;;9.12;100.00;98265.00;5235765;28;20212;-66
2023/04/17 00:13:58;;;;;;;17.98;16.08;;;8.50;99.90;;;9.13;100.00;98260.78;5238989;28;20203;-66
2023/04/17 00:16:31;;;;;;;17.98;16.17;;;8.50;99.90;;;9.10;100.00;98256.41;5243368;28;20230;-67
2023/04/17 00:19:04;;;;;;;17.48;15.63;;;8.50;99.90;;;9.15;100.00;98260.13;5242544;28;21360;-66
2023/04/17 00:21:37;;;;;;;20.65;16.35;;;8.50;99.90;;;9.13;100.00;98255.69;5240393;28;20716;-66
2023/04/17 00:24:11;;;;;;;17.30;15.50;;;8.50;99.90;;;9.07;100.00;98258.72;5231137;28;20559;-66
2023/04/17 00:26:45;;;;;;;17.02;14.63;;;8.50;99.90;;;9.12;100.00;98261.59;5233734;28;20251;-66
2023/04/17 00:29:19;;;;;;;17.67;15.50;;;8.50;99.90;;;9.10;100.00;98256.41;5239523;28;20207;-66
2023/04/17 00:31:52;;;;;;;15.40;13.80;;;8.40;99.90;;;9.08;100.00;98260.50;5234075;28;20207;-66
2023/04/17 00:34:26;;;;;;;17.97;13.83;;;8.40;99.90;;;9.07;100.00;98260.38;5240068;28;20201;-65
2023/04/17 00:36:59;;;;;;;15.63;14.02;;;8.40;99.90;;;9.07;100.00;98257.81;5240726;28;20224;-66
2023/04/17 00:39:32;;;;;;;16.20;14.45;;;8.40;99.90;;;9.05;100.00;98256.84;5234873;28;20201;-65
2023/04/17 00:42:05;;;;;;;16.13;14.43;;;8.40;99.90;;;9.06;100.00;98248.41;5239031;28;20207;-66
2023/04/17 00:44:40;;;;;;;16.60;13.95;;;8.40;99.90;;;9.05;100.00;98254.31;5237207;28;20331;-65
2023/04/17 00:47:13;;;;;;;15.90;14.20;;;8.40;99.90;;;9.03;100.00;98249.97;5237265;28;20211;-65
2023/04/17 00:49:46;;;;;;;15.25;13.57;;;8.40;99.90;;;9.06;100.00;98266.25;5234679;28;20205;-65
2023/04/17 00:52:27;;;;;;;15.80;13.82;;;8.40;99.90;;;9.08;100.00;98251.97;5239651;28;20208;-65
2023/04/17 00:55:00;;;;;;;16.05;14.35;;;8.30;99.90;;;9.07;100.00;98248.53;5239966;28;20312;-66
2023/04/17 00:57:34;;;;;;;16.02;14.27;;;8.30;99.90;;;9.05;100.00;98246.66;5235276;28;20223;-66
2023/04/17 01:00:10;;;;;;;15.68;13.98;;;8.30;99.90;;;9.05;100.00;98239.00;5238777;28;20207;-64
2023/04/17 01:02:44;;;;;;;16.80;15.00;;;8.30;99.90;;;9.03;100.00;98239.75;5242793;28;20207;-64
2023/04/17 01:05:17;;;;;;;18.08;14.65;;;8.40;99.90;;;9.02;100.00;98237.13;5234975;28;20261;-66
2023/04/17 01:07:51;;;;;;;18.38;14.73;;;8.40;99.90;;;8.97;100.00;98247.00;5237886;28;20296;-66
2023/04/17 01:10:24;;;;;;;17.20;15.07;;;8.30;99.90;;;8.97;100.00;98241.91;5237125;28;20291;-65
2023/04/17 01:13:04;;;;;;;18.90;15.30;;;8.30;99.90;;;8.96;100.00;98241.81;5233596;28;20281;-65
2023/04/17 01:15:39;;;;;;;18.77;16.13;;;8.30;99.90;;;8.96;100.00;98240.13;5240013;28;20220;-65
2023/04/17 01:18:12;;;;;;;16.20;14.50;;;8.30;99.90;;;8.97;100.00;98239.34;5240221;28;20215;-64
2023/04/17 01:20:45;;;;;;;18.85;15.07;;;8.30;99.90;;;8.96;100.00;98242.69;5239667;28;20205;-65
2023/04/17 01:23:18;;;;;;;17.42;14.90;;;8.30;99.90;;;8.96;100.00;98241.81;5241373;28;20205;-65
2023/04/17 01:25:52;;;;;;;19.50;15.55;;;8.30;99.90;;;8.95;100.00;98240.91;5238513;28;20597;-65
2023/04/17 01:28:25;;;;;;;18.27;15.63;;;8.30;99.90;;;8.95;100.00;98237.47;5240891;28;20193;-66
2023/04/17 01:30:58;;;;;;;19.27;15.93;;;8.30;99.90;;;8.93;100.00;98233.94;5240203;28;20844;-65
2023/04/17 01:33:32;;;;;;;19.27;15.95;;;8.30;99.90;;;8.92;100.00;98240.69;5234618;28;20202;-66
2023/04/17 01:36:06;;;;;;;19.40;16.27;;;8.30;99.90;;;8.91;100.00;98241.47;5243733;28;20219;-66
2023/04/17 01:38:39;;;;;;;19.90;16.37;;;8.20;99.90;;;8.86;100.00;98239.38;5236142;28;20243;-65
2023/04/17 01:41:14;;;;;;;19.83;16.73;;;8.20;99.90;;;8.82;100.00;98240.84;5240241;28;20208;-65
2023/04/17 01:43:47;;;;;;;17.98;15.82;;;8.20;99.90;;;8.81;100.00;98246.69;5239428;28;20609;-65
2023/04/17 01:46:20;;;;;;;20.40;17.35;;;8.10;99.90;;;8.78;100.00;98238.84;5234582;28;20232;-66
2023/04/17 01:48:54;;;;;;;20.13;17.10;;;8.10;99.90;;;8.75;100.00;98242.06;5231976;28;20228;-65
2023/04/17 01:51:27;;;;;;;20.97;18.03;;;8.10;99.90;;;8.75;100.00;98247.16;5229045;28;20673;-65
2023/04/17 01:54:00;;;;;;;22.40;17.77;;;8.10;99.90;;;8.76;100.00;98242.97;5240431;28;20196;-65
2023/04/17 01:56:35;;;;;;;21.80;17.07;;;8.10;99.90;;;8.75;100.00;98246.28;5236323;28;20762;-65
2023/04/17 01:59:08;;;;;;;18.57;16.53;;;8.10;99.90;;;8.75;100.00;98244.59;5235579;28;20230;-65
2023/04/17 02:01:41;;;;;;;19.37;16.60;;;8.10;99.90;;;8.79;100.00;98244.06;5234752;28;20658;-65
2023/04/17 02:04:14;;;;;;;24.53;19.07;;;8.10;99.90;;;8.79;100.00;98244.06;5240328;28;20232;-66
2023/04/17 02:06:47;;;;;;;25.03;20.33;;;8.10;99.90;;;8.77;100.00;98240.50;5242288;28;20343;-65
2023/04/17 02:09:20;;;;;;;26.55;21.20;;;8.10;99.90;;;8.78;100.00;98246.47;5246605;28;20205;-66
2023/04/17 02:11:55;;;;;;;25.13;20.93;;;8.10;99.90;;;8.76;100.00;98241.31;5232245;28;20307;-67
2023/04/17 02:14:30;;;;;;;23.50;20.10;;;8.10;99.90;;;8.79;100.00;98240.63;5226029;28;20295;-65
2023/04/17 02:17:03;;;;;;;26.63;21.58;;;8.10;99.90;;;8.81;100.00;98236.50;5232563;28;20231;-66
2023/04/17 02:19:36;;;;;;;24.98;20.88;;;8.10;99.90;;;8.82;100.00;98233.19;5241876;28;20295;-65
2023/04/17 02:22:09;;;;;;;23.35;20.48;;;8.10;99.90;;;8.84;100.00;98233.28;5234464;28;20222;-65
2023/04/17 02:24:42;;;;;;;21.98;18.65;;;8.10;99.90;;;8.82;100.00;98237.41;5237336;28;20346;-65
2023/04/17 02:27:17;;;;;;;23.65;18.95;;;8.10;99.90;;;8.84;100.00;98236.72;5232354;28;20198;-66
2023/04/17 02:29:50;;;;;;;24.23;18.83;;;8.10;99.90;;;8.84;100.00;98240.94;5243368;28;20210;-65
2023/04/17 02:32:23;;;;;;;21.15;17.50;;;8.10;99.90;;;8.80;100.00;98240.72;5239477;28;20212;-65
2023/04/17 02:34:56;;;;;;;22.70;18.27;;;8.10;99.90;;;8.73;100.00;98242.75;5233500;28;20228;-66
2023/04/17 02:37:29;;;;;;;26.25;20.30;;;8.00;99.90;;;8.69;100.00;98239.09;5239106;28;20224;-67
2023/04/17 02:40:05;;;;;;;24.65;18.75;;;8.10;99.90;;;8.71;100.00;98246.84;5234346;28;20590;-65
2023/04/17 02:42:40;;;;;;;22.85;18.67;;;8.00;99.90;;;8.70;100.00;98245.97;5243311;28;20196;-66
2023/04/17 02:45:13;;;;;;;24.57;20.00;;;8.10;99.90;;;8.70;100.00;98242.50;5239492;28;20306;-66
2023/04/17 02:47:46;;;;;;;26.58;20.83;;;8.10;99.90;;;8.71;100.00;98249.41;5235423;28;22181;-65
2023/04/17 02:50:19;;;;;;;23.08;19.42;;;8.10;99.90;;;8.72;100.00;98246.06;5241496;28;20196;-67
2023/04/17 02:52:53;;;;;;;22.85;19.90;;;8.10;99.90;;;8.73;100.00;98245.31;5236213;28;20650;-65
2023/04/17 02:55:26;;;;;;;24.03;19.57;;;8.00;99.90;;;8.76;100.00;98245.50;5240718;28;20256;-67
2023/04/17 02:58:01;;;;;;;22.93;19.10;;;8.00;99.90;;;8.76;100.00;98243.84;5239104;28;20247;-66
2023/04/17 03:00:34;;;;;;;23.90;18.92;;;8.00;99.90;;;8.70;100.00;98250.16;5234909;28;20689;-66
2023/04/17 03:03:08;;;;;;;23.87;18.67;;;8.00;99.90;;;8.64;100.00;98243.00;5238464;28;20197;-65
2023/04/17 03:05:41;;;;;;;24.00;19.60;;;8.00;99.90;;;8.64;100.00;98252.28;5238759;28;20226;-66
2023/04/17 03:08:14;;;;;;;26.03;19.77;;;8.00;99.90;;;8.63;100.00;98242.88;5237094;28;20246;-66
2023/04/17 03:10:47;;;;;;;25.53;19.27;;;8.00;99.90;;;8.70;100.00;98242.50;5239268;28;20211;-67
2023/04/17 03:13:22;;;;;;;20.48;17.33;;;8.00;99.90;;;8.67;100.00;98242.28;5232458;28;20258;-66
2023/04/17 03:15:55;;;;;;;23.53;19.90;;;8.00;99.90;;;8.68;100.00;98236.44;5232589;28;20905;-66
2023/04/17 03:18:28;;;;;;;24.37;19.57;;;8.00;99.90;;;8.69;100.00;98240.75;5240333;28;20216;-66
2023/04/17 03:21:01;;;;;;;27.40;20.60;;;8.00;99.90;;;8.65;100.00;98238.78;5229827;28;20208;-66
2023/04/17 03:23:34;;;;;;;25.07;19.33;;;8.00;99.90;;;8.62;100.00;98246.22;5235461;28;20202;-65
2023/04/17 03:26:07;;;;;;;25.70;20.20;;;7.90;99.90;;;8.63;100.00;98240.31;5235137;28;20224;-67
2023/04/17 03:28:42;;;;;;;25.73;19.17;;;8.00;99.90;;;8.64;100.00;98235.34;5231067;28;20287;-66
2023/04/17 03:31:15;;;;;;;24.70;19.93;;;7.90;99.90;;;8.62;100.00;98243.66;5236538;28;20202;-66
2023/04/17 03:33:48;;;;;;;23.47;18.67;;;7.90;99.90;;;8.62;100.00;98244.53;5241197;28;20273;-66
2023/04/17 03:36:21;;;;;;;25.93;20.67;;;8.00;99.90;;;8.59;100.00;98243.44;5236462;28;20220;-67
2023/04/17 03:38:54;;;;;;;27.13;21.47;;;8.00;99.90;;;8.64;100.00;98247.19;5239748;28;20700;-66
2023/04/17 03:41:27;;;;;;;25.13;19.77;;;8.00;99.90;;;8.67;100.00;98247.38;5237447;28;20196;-66
2023/04/17 03:44:02;;;;;;;26.27;20.73;;;8.00;99.90;;;8.66;100.00;98245.63;5232914;28;20568;-66
2023/04/17 03:46:35;;;;;;;25.77;21.37;;;8.00;99.90;;;8.69;100.00;98256.03;5234542;28;20452;-66
2023/04/17 03:49:08;;;;;;;27.93;21.97;;;8.00;99.90;;;8.66;100.00;98251.59;5238944;28;20196;-66
2023/04/17 03:51:42;;;;;;;28.33;20.67;;;8.00;99.90;;;8.71;100.00;98254.50;5231548;28;20300;-66
2023/04/17 03:54:15;;;;;;;25.55;19.95;;;8.00;99.90;;;8.70;100.00;98251.06;5230693;28;20188;-65
2023/04/17 03:56:49;;;;;;;26.73;21.00;;;8.00;99.90;;;8.68;100.00;98252.63;5233104;28;20218;-66
2023/04/17 03:59:23;;;;;;;28.17;20.87;;;8.00;99.90;;;8.69;100.00;98258.59;5240187;28;20632;-65
2023/04/17 04:01:56;;;;;;;26.63;21.03;;;8.00;99.90;;;8.69;100.00;98258.59;5236473;28;20222;-67
2023/04/17 04:04:30;;;;;;;27.47;21.00;;;8.00;99.90;;;8.68;100.00;98261.94;5223353;28;20707;-67
2023/04/17 04:07:03;;;;;;;26.83;20.67;;;8.00;99.90;;;8.70;100.00;98260.34;5227226;28;20213;-67
2023/04/17 04:09:36;;;;;;;28.33;22.53;;;8.10;99.90;;;8.67;100.00;98258.50;5233349;28;20203;-66
2023/04/17 04:12:10;;;;;;;28.30;21.80;;;8.10;99.90;;;8.68;100.00;98259.38;5238707;28;20316;-67
2023/04/17 04:14:44;;;;;;;28.30;20.67;;;8.00;99.90;;;8.68;100.00;98260.25;5234419;28;20208;-66
2023/04/17 04:17:18;;;;;;;25.38;21.85;;;8.00;99.90;;;8.68;100.00;98265.34;5240691;28;20200;-66
2023/04/17 04:19:51;;;;;;;26.15;21.20;;;8.00;99.90;;;8.74;100.00;98259.81;5236222;28;20277;-67
2023/04/17 04:22:24;;;;;;;28.88;21.63;;;8.10;99.90;;;8.74;100.00;98264.91;5235027;28;20299;-67
2023/04/17 04:24:58;;;;;;;25.48;20.33;;;8.10;99.90;;;8.73;100.00;98260.59;5233132;28;20716;-65
2023/04/17 04:27:32;;;;;;;29.10;20.77;;;8.10;99.90;;;8.76;100.00;98265.91;5237478;28;20208;-66
2023/04/17 04:30:09;;;;;;;26.42;21.30;;;8.10;99.90;;;8.74;100.00;98264.91;5236399;28;20727;-66
2023/04/17 04:32:42;;;;;;;27.03;20.93;;;8.00;99.90;;;8.75;100.00;98265.00;5242012;28;20288;-66
2023/04/17 04:35:15;;;;;;;28.97;22.30;;;8.00;99.90;;;8.76;100.00;98273.56;5234981;28;20228;-65
2023/04/17 04:37:48;;;;;;;27.98;21.05;;;8.00;99.90;;;8.80;100.00;98270.44;5237789;28;20617;-66
2023/04/17 04:40:23;;;;;;;25.98;20.92;;;8.10;99.90;;;8.77;100.00;98270.22;5232291;28;20220;-66
2023/04/17 04:42:57;;;;;;;26.37;20.63;;;8.10;99.90;;;8.76;100.00;98258.25;5231997;28;20199;-66
2023/04/17 04:45:31;;;;;;;26.52;19.80;;;8.00;99.90;;;8.77;100.00;98272.75;5230907;28;20750;-67
2023/04/17 04:48:05;;;;;;;28.02;20.38;;;8.10;99.90;;;8.75;100.00;98266.66;5235435;28;20205;-65
2023/04/17 04:50:38;;;;;;;28.75;22.02;;;8.10;99.90;;;8.79;100.00;98271.22;5240018;28;20204;-67
2023/04/17 04:53:11;;;;;;;29.30;21.10;;;8.10;99.90;;;8.77;100.00;98265.13;5238823;28;20201;-65
2023/04/17 04:55:44;;;;;;;28.63;20.60;;;8.10;99.90;;;8.76;100.00;98271.88;5244244;28;20704;-66
2023/04/17 04:58:17;;;;;;;27.47;20.27;;;8.10;99.90;;;8.75;100.00;98276.84;5243159;28;20201;-65
2023/04/17 05:00:52;;;;;;;30.37;21.00;;;8.10;99.90;;;8.75;100.00;98277.72;5236250;28;20220;-66
2023/04/17 05:03:25;;;;;;;27.73;22.07;;;8.10;99.90;;;8.78;100.00;98277.06;5235117;28;20638;-66
2023/04/17 05:05:58;;;;;;;28.23;21.57;;;8.20;99.90;;;8.79;100.00;98281.41;5240287;28;20220;-67
2023/04/17 05:08:33;;;;;;;25.87;21.43;;;8.10;99.90;;;8.80;100.00;98285.72;5238244;28;20288;-66
2023/04/17 05:11:06;;;;;;;31.57;22.47;;;8.20;99.90;;;8.82;100.00;98286.72;5234200;28;20204;-65
2023/04/17 05:13:39;;;;;;;28.63;21.17;;;8.20;99.90;;;8.84;100.00;98282.59;5236772;28;20562;-66
2023/04/17 05:16:13;;;;;;;29.92;22.60;;;8.20;99.90;;;8.86;100.00;98275.94;5240946;28;20349;-65
2023/04/17 05:18:46;;;;;;;33.38;22.05;;;8.20;99.90;;;8.85;100.00;98284.38;5243460;28;20243;-65
2023/04/17 05:21:20;;;;;;;28.08;21.23;;;8.20;99.90;;;8.87;100.00;98292.13;5239644;28;20197;-66
2023/04/17 05:23:53;;;;;;;25.95;20.23;;;8.20;99.90;;;8.87;100.00;98293.03;5241342;28;20291;-66
2023/04/17 05:26:26;;;;;;;25.58;20.02;;;8.20;99.90;;;8.87;100.00;98293.03;5239709;28;20306;-66
2023/04/17 05:28:59;;;;;;;29.50;21.45;;;8.20;99.90;;;8.90;100.00;98292.34;5236001;28;20203;-66
2023/04/17 05:31:34;;;;;;;28.90;21.77;;;8.20;99.90;;;8.88;100.00;98294.78;5239523;28;20657;-66
2023/04/17 05:34:07;;;;;;;30.13;22.10;;;8.20;99.90;;;8.87;100.00;98293.03;5239704;28;20197;-65
2023/04/17 05:36:40;;;;;;;29.67;21.70;;;8.20;99.90;;;8.93;100.00;98293.47;5244010;28;20852;-66
2023/04/17 05:39:13;;;;;;;29.17;20.83;;;8.20;99.90;;;8.94;100.00;98300.31;5235181;28;20527;-66
2023/04/17 05:41:46;;;;;;;28.75;21.30;;;8.30;99.90;;;8.93;100.00;98293.47;5238541;28;20241;-66
2023/04/17 05:44:19;;;;;;;24.75;19.60;;;8.30;99.90;;;8.95;100.00;98293.56;5237732;28;20296;-66
2023/04/17 05:46:55;;;;;;;30.77;21.15;;;8.30;99.90;;;8.97;100.00;98297.97;5235014;28;20223;-66
2023/04/17 05:49:29;;;;;;;31.02;21.42;;;8.30;99.90;;;8.95;100.00;98296.97;5241032;28;20573;-66
2023/04/17 05:52:02;;;;;;;28.75;20.35;;;8.30;99.90;;;9.01;100.00;98301.63;5242044;28;20575;-65
2023/04/17 05:54:35;;;;;;;25.98;20.77;;;8.30;99.90;;;9.02;100.00;98303.41;5242879;28;20200;-66
2023/04/17 05:57:08;;;;;;;29.08;20.52;;;8.30;99.90;;;9.02;100.00;98299.19;5241958;28;20216;-65
2023/04/17 05:59:42;;;;;;;29.70;20.63;;;8.30;99.90;;;9.00;100.00;98304.97;5244074;28;20224;-66
2023/04/17 06:02:16;;;;;;;27.98;21.30;;;8.30;99.90;;;9.03;100.00;98300.06;5244158;28;20228;-64
2023/04/17 06:04:50;;;;;;;30.30;21.48;;;8.30;99.90;;;9.02;100.00;98303.41;5234692;28;20204;-67
2023/04/17 06:07:23;;;;;;;30.43;21.10;;;8.30;99.90;;;8.98;100.00;98307.38;5232581;28;20697;-67
2023/04/17 06:09:57;;;;;;;30.15;20.70;;;8.30;99.90;;;9.01;100.00;98312.72;5242314;28;20270;-67
2023/04/17 06:12:30;;;;;;;27.15;19.05;;;8.30;99.90;;;9.02;100.00;98314.50;5245031;28;20574;-66
2023/04/17 06:15:03;;;;;;;24.27;18.30;;;8.30;99.90;;;9.01;100.00;98310.19;5235688;28;20311;-66
2023/04/17 06:17:39;;;;;;;24.27;17.88;;;8.30;99.90;;;8.92;100.00;98309.50;5238414;28;20557;-66
2023/04/17 06:20:13;;;;;;;24.65;17.58;;;8.30;99.90;;;8.94;100.00;98314.72;5244271;28;20246;-66
2023/04/17 06:22:46;;;;;;;22.52;16.50;;;8.20;99.90;;;8.93;100.00;98316.41;5242251;28;20204;-65
2023/04/17 06:25:19;;;;;;;24.67;18.15;;;8.30;99.90;;;8.94;100.00;98315.63;5238417;28;20231;-66
2023/04/17 06:27:52;;;;;;;24.77;17.65;;;8.30;99.90;;;8.95;100.00;98313.94;5243398;28;20197;-66
2023/04/17 06:30:25;;;;;;;24.02;18.15;;;8.30;99.90;;;8.96;100.00;98324.25;5234410;28;20208;-66
2023/04/17 06:33:00;;;;;;;23.88;18.17;;;8.30;99.90;;;8.99;100.00;98318.50;5238673;28;20283;-65
2023/04/17 06:35:33;;;;;;;22.67;17.25;;;8.30;99.90;;;9.00;100.00;98321.13;5240064;28;20216;-66
2023/04/17 06:38:07;;;;;;;25.58;17.98;;;8.30;99.90;;;9.00;100.00;98321.13;5242215;28;20281;-65
2023/04/17 06:40:40;;;;;;;22.75;17.15;;;8.30;99.90;;;9.05;100.00;98318.03;5237716;28;20239;-65
2023/04/17 06:43:15;;;;;;;22.25;16.33;;;8.40;99.90;;;9.10;100.00;98321.78;5243473;28;20652;-65
2023/04/17 06:45:49;;;;;;;21.73;16.13;;;8.40;99.90;;;9.12;100.00;98322.78;5243649;28;20220;-65
2023/04/17 06:48:23;;;;;;;21.25;17.13;;;8.40;99.90;;;9.06;100.00;98320.69;5243086;28;20206;-65
2023/04/17 06:50:56;;;;;;;23.27;18.10;;;8.40;99.90;;;9.11;100.00;98321.03;5242796;28;20220;-64
2023/04/17 06:53:29;;;;;;;23.52;18.35;;;8.40;99.90;;;9.12;100.00;98321.13;5240507;28;20609;-65
2023/04/17 06:56:03;;;;;;;20.17;15.10;;;8.50;99.90;;;9.18;100.00;98323.19;5242368;28;20655;-65
2023/04/17 06:58:42;;;;;;;17.95;14.80;;;8.50;99.90;;;9.15;100.00;98326.44;5241585;28;20668;-65
2023/04/17 07:01:15;;;;;;;17.95;13.35;;;8.50;99.90;;;9.13;100.00;98324.53;5242533;28;20303;-66
2023/04/17 07:03:50;;;;;;;14.00;12.05;;;8.40;99.90;;;9.10;100.00;98324.31;5242136;28;20228;-66
2023/04/17 07:06:24;;;;;;;15.55;12.57;;;8.40;99.90;;;9.16;100.00;98332.44;5243374;28;20223;-66
2023/04/17 07:08:57;;;;;;;16.17;12.35;;;8.50;99.90;;;9.21;100.00;98326.88;5243520;28;20207;-65
2023/04/17 07:11:30;;;;;;;12.95;10.98;;;8.60;99.90;;;9.28;100.00;98338.38;5243579;28;20197;-66
2023/04/17 07:14:03;;;;;;;14.27;11.10;;;8.60;99.90;;;9.33;100.00;98337.03;5231362;28;20724;-66
2023/04/17 07:16:36;;;;;;;12.40;11.07;;;8.60;99.90;;;9.38;100.00;98334.78;5226234;28;20225;-64
2023/04/17 07:19:11;;;;;;;12.55;10.98;;;8.70;99.90;;;9.40;100.00;98334.13;5237298;28;20193;-65
2023/04/17 07:21:44;;;;;;;11.25;10.05;;;8.70;99.90;;;9.45;100.00;98345.53;5237220;28;20220;-65
2023/04/17 07:24:17;;;;;;;11.45;10.10;;;8.70;99.90;;;9.39;100.00;98347.66;5231212;28;20205;-65
2023/04/17 07:26:50;;;;;;;10.50;9.43;;;8.60;99.90;;;9.41;100.00;98341.03;5240675;28;20315;-66
2023/04/17 07:29:24;;;;;;;11.80;10.27;;;8.70;99.90;;;9.43;100.00;98344.53;5241505;28;20188;-65
2023/04/17 07:31:57;;;;;;;10.52;9.52;;;8.70;99.90;;;9.48;100.00;98345.75;5240340;28;20210;-65
2023/04/17 07:34:33;;;;;;;12.15;10.18;;;8.80;99.90;;;9.46;100.00;98344.75;5230485;28;20228;-65
2023/04/17 07:37:06;;;;;;;11.68;10.45;;;8.80;99.90;;;9.56;100.00;98356.50;5241352;28;20238;-66
2023/04/17 07:39:39;;;;;;;10.70;9.60;;;8.90;99.90;;;9.58;100.00;98342.16;5243500;28;20203;-65
2023/04/17 07:42:12;;;;;;;10.85;9.13;;;8.90;99.90;;;9.45;100.00;98353.19;5242958;28;20209;-65
2023/04/17 07:44:46;;;;;;;9.20;8.30;;;8.80;99.90;;;9.50;100.00;98352.63;5241827;28;20211;-65
2023/04/17 07:47:19;;;;;;;10.45;9.20;;;8.80;99.90;;;9.62;100.00;98350.94;5243108;28;20295;-66
2023/04/17 07:49:54;;;;;;;9.93;8.98;;;8.90;99.90;;;9.74;100.00;98354.31;5242590;28;20212;-65
2023/04/17 07:52:27;;;;;;;10.23;9.07;;;9.00;99.90;;;9.80;100.00;98357.28;5230738;28;20585;-65
2023/04/17 07:55:00;;;;;;;9.25;8.40;;;9.10;99.90;;;10.01;100.00;98352.72;5241279;28;20224;-65
2023/04/17 07:57:33;;;;;;;9.13;8.23;;;9.20;99.90;;;9.99;100.00;98354.31;5243769;28;20263;-64
2023/04/17 08:00:09;;;;;;;9.80;7.88;;;9.20;99.90;;;10.07;100.00;98354.78;5231287;28;20655;-65
2023/04/17 08:02:43;;;;;;;9.15;8.25;;;9.30;99.90;;;10.10;100.00;98360.09;5243234;28;20667;-66
2023/04/17 08:05:18;;;;;;;8.50;7.65;;;9.20;99.90;;;10.14;100.00;98360.44;5242471;28;20220;-65
2023/04/17 08:07:51;;;;;;;8.65;7.75;;;9.30;99.90;;;10.24;100.00;98359.34;5242278;28;20257;-66
2023/04/17 08:10:24;;;;;;;8.25;7.55;;;9.30;99.90;;;10.07;100.00;98360.81;5238911;28;20197;-65
2023/04/17 08:12:58;;;;;;;8.35;7.38;;;9.30;99.90;;;10.10;100.00;98362.66;5241792;28;20219;-65
2023/04/17 08:15:31;;;;;;;7.88;7.18;;;9.40;99.90;;;10.10;100.00;98362.66;5237517;28;20307;-65
2023/04/17 08:18:04;;;;;;;7.20;6.57;;;9.30;99.90;;;10.18;100.00;98365.75;5242384;28;20207;-64
2023/04/17 08:20:39;;;;;;;7.95;7.25;;;9.30;99.90;;;10.25;100.00;98367.94;5237613;28;20221;-66
2023/04/17 08:23:12;;;;;;;7.70;7.00;;;9.40;99.90;;;10.33;100.00;98367.69;5238980;28;20204;-65
2023/04/17 08:25:45;;;;;;;7.47;6.78;;;9.50;99.90;;;10.38;100.00;98371.41;5239004;28;20252;-66
2023/04/17 08:28:18;;;;;;;6.90;6.30;;;9.60;99.90;;;10.51;100.00;98373.13;5241368;28;20579;-65
2023/04/17 08:30:51;;;;;;;7.10;6.55;;;9.60;99.90;;;10.51;100.00;98373.13;5243165;28;20665;-65
2023/04/17 08:33:25;;;;;;;6.90;6.30;;;9.60;99.90;;;10.53;100.00;98378.31;5245657;28;20254;-65
2023/04/17 08:36:00;;;;;;;7.03;6.43;;;9.70;99.90;;;10.56;100.00;98376.88;5245457;28;20726;-65
2023/04/17 08:38:36;;;;;;;6.80;6.15;;;9.70;99.90;;;10.52;100.00;98377.44;5245477;28;20590;-65
2023/04/17 08:41:13;;;;;;;6.75;6.15;;;9.60;99.90;;;10.22;100.00;98385.63;5242925;28;20223;-65
2023/04/17 08:43:49;;;;;;;6.80;6.20;;;9.50;99.90;;;10.20;100.00;98380.38;5246000;28;20197;-65
2023/04/17 08:46:23;;;;;;;7.20;6.60;;;9.40;99.90;;;10.32;100.00;98381.22;5240009;28;20783;-65
2023/04/17 08:48:57;;;;;;;6.70;6.20;;;9.50;99.90;;;10.27;100.00;98381.69;5244527;28;20677;-64
2023/04/17 08:51:31;;;;;;;7.35;6.75;;;9.50;99.90;;;10.24;100.00;98378.91;5244445;28;20192;-66
2023/04/17 08:54:05;;;;;;;8.43;7.63;;;9.50;99.90;;;10.24;100.00;98387.47;5242908;28;20196;-65
2023/04/17 08:56:38;;;;;;;7.35;6.75;;;9.50;99.90;;;10.20;100.00;98382.94;5241739;28;21067;-65
2023/04/17 08:59:11;;;;;;;7.55;6.95;;;9.50;99.90;;;10.26;100.00;98383.34;5243874;28;20201;-65
2023/04/17 09:02:00;;;;;;;8.35;7.50;;;9.60;99.90;;;10.18;100.00;98391.28;5245132;28;20228;-65
2023/04/17 09:04:40;;;;;;;8.00;7.32;;;9.60;99.90;;;10.22;100.00;98383.06;5245239;28;20197;-65
2023/04/17 09:07:15;;;;;;;7.63;7.03;;;9.60;99.90;;;10.13;100.00;98375.66;5246065;28;20192;-66
2023/04/17 09:09:53;;;;;;;7.90;7.30;;;9.60;99.90;;;10.38;100.00;98381.63;5236668;28;20209;-65
2023/04/17 09:12:26;;;;;;;8.52;7.80;;;9.80;99.90;;;10.33;100.00;98377.00;5245043;28;20196;-65
2023/04/17 09:14:59;;;;;;;8.52;7.82;;;9.70;99.90;;;10.35;100.00;98381.44;5244267;28;20218;-65
2023/04/17 09:17:36;;;;;;;8.20;7.43;;;9.70;99.90;;;10.27;100.00;98387.72;5246215;28;20224;-66
2023/04/17 09:20:11;;;;;;;8.52;7.82;;;9.70;99.90;;;10.06;100.00;98388.78;5243960;28;20211;-65
2023/04/17 09:22:46;;;;;;;9.38;8.57;;;9.60;99.90;;;10.14;100.00;98390.19;5245221;28;20220;-65
2023/04/17 09:25:22;;;;;;;8.73;8.02;;;9.50;99.90;;;10.10;100.00;98389.13;5241189;28;20226;-65
2023/04/17 09:28:02;;;;;;;8.85;8.05;;;9.50;99.90;;;10.04;100.00;98392.91;5234557;28;20293;-65
2023/04/17 09:30:37;;;;;;;10.00;9.10;;;9.50;99.90;;;10.15;100.00;98391.97;5230966;28;20194;-66
2023/04/17 09:33:11;;;;;;;9.35;8.52;;;9.50;99.90;;;10.07;100.00;98393.09;5228175;28;20197;-65
2023/04/17 09:35:45;;;;;;;8.93;8.13;;;9.50;99.90;;;10.05;100.00;98389.59;5240994;28;20221;-64
2023/04/17 09:38:37;;;;;;;9.25;8.35;;;9.50;99.90;;;10.09;100.00;98394.09;5245164;28;20702;-66
2023/04/17 09:41:23;;;;;;;9.85;8.95;;;9.50;99.90;;;10.12;100.00;98386.66;5245222;28;20216;-66
2023/04/17 09:44:00;;;;;;;9.98;9.13;;;9.50;99.90;;;10.14;100.00;98388.53;5245168;28;20207;-65
2023/04/17 09:46:36;;;;;;;10.95;9.85;;;9.50;99.90;;;10.13;100.00;98393.53;5240247;28;20226;-66
2023/04/17 09:49:17;;;;;;;11.50;10.05;;;9.50;99.90;;;10.12;100.00;98390.09;5241893;28;20208;-65
2023/04/17 09:51:51;;;;;;;10.95;9.95;;;9.60;99.90;;;10.15;100.00;98391.97;5240836;28;20283;-65
2023/04/17 09:54:30;;;;;;;11.02;9.93;;;9.50;99.90;;;10.23;100.00;98387.38;5230781;28;20227;-65
2023/04/17 09:57:03;;;;;;;12.20;10.65;;;9.60;99.90;;;10.21;100.00;98396.59;5242003;28;20216;-64
2023/04/17 09:59:39;;;;;;;11.88;10.68;;;9.70;99.90;;;10.31;100.00;98393.91;5241893;28;20200;-66
2023/04/17 10:02:14;;;;;;;10.10;9.20;;;9.70;99.90;;;10.46;100.00;98394.03;5235995;28;20231;-65
2023/04/17 10:04:47;;;;;;;11.13;9.80;;;9.80;99.90;;;10.52;100.00;98392.75;5244181;28;20282;-66
2023/04/17 10:07:20;;;;;;;10.60;9.63;;;9.90;99.90;;;10.70;100.00;98390.56;5233094;28;20204;-65
2023/04/17 10:09:55;;;;;;;9.80;8.70;;;10.00;99.90;;;10.86;100.00;98391.53;5240163;28;20205;-65
2023/04/17 10:12:28;;;;;;;9.75;8.82;;;10.10;99.90;;;10.93;100.00;98389.47;5238910;28;20303;-64
2023/04/17 10:15:03;;;;;;;10.30;9.30;;;10.20;99.90;;;11.02;100.00;98384.94;5245078;28;20217;-66
2023/04/17 10:17:37;;;;;;;10.70;9.70;;;10.30;99.90;;;11.04;100.00;98390.13;5236644;28;20668;-66
2023/04/17 10:20:36;;;;;;;9.30;8.50;;;10.30;99.90;;;11.12;100.00;98381.28;5239120;28;20200;-66
2023/04/17 10:23:31;;;;;;;9.63;8.80;;;10.30;99.90;;;11.15;100.00;98372.91;5241914;28;20269;-66
2023/04/17 10:26:38;;;;;;;11.93;10.85;;;10.40;99.90;;;11.24;100.00;98374.38;5239913;28;20252;-66
2023/04/17 10:29:12;;;;;;;10.55;9.52;;;10.40;99.90;;;11.33;100.00;98371.53;5244138;28;20744;-64
2023/04/17 10:32:24;;;;;;;10.77;9.77;;;10.50;99.90;;;11.33;100.00;98370.63;5243763;28;20760;-66
2023/04/17 10:34:59;;;;;;;11.13;10.07;;;10.50;99.90;;;11.53;100.00;98370.16;5236422;28;20291;-65
2023/04/17 10:38:05;;;;;;;10.73;9.73;;;10.70;99.90;;;11.57;100.00;98361.91;5238706;28;20333;-66
2023/04/17 10:40:39;;;;;;;10.25;9.35;;;10.70;99.90;;;11.77;100.00;98357.09;5242486;28;20209;-65
2023/04/17 10:43:18;;;;;;;9.70;8.82;;;10.90;99.90;;;12.08;100.00;98363.31;5244337;28;20787;-65